sensor_id;sensor_type;location;lat;lon;timestamp;P1;durP1;ratioP1;P2;durP2;ratioP2
13720;SDS011;6932;51.438;5.470;2023-03-14T00:00:14;3.70;;;1.37;;
13720;SDS011;6932;51.438;5.470;2023-03-14T00:02:41;2.97;;;1.30;;
13720;SDS011;6932;51.438;5.470;2023-03-14T00:05:07;2.73;;;1.10;;
13720;SDS011;6932;51.438;5.470;2023-03-14T00:07:34;2.73;;;1.30;;
13720;SDS011;6932;51.438;5.470;2023-03-14T00:10:08;4.87;;;1.20;;
13720;SDS011;6932;51.438;5.470;2023-03-14T00:12:38;4.37;;;1.50;;
13720;SDS011;6932;51.438;5.470;2023-03-14T00:15:06;3.60;;;1.40;;
13720;SDS011;6932;51.438;5.470;2023-03-14T00:17:33;3.97;;;1.30;;
13720;SDS011;6932;51.438;5.470;2023-03-14T00:20:00;3.23;;;1.30;;
13720;SDS011;6932;51.438;5.470;2023-03-14T00:22:33;3.70;;;1.20;;
13720;SDS011;6932;51.438;5.470;2023-03-14T00:25:00;4.53;;;1.40;;
13720;SDS011;6932;51.438;5.470;2023-03-14T00:27:29;3.87;;;1.20;;
13720;SDS011;6932;51.438;5.470;2023-03-14T00:29:55;4.17;;;1.43;;
13720;SDS011;6932;51.438;5.470;2023-03-14T00:32:21;3.90;;;1.20;;
13720;SDS011;6932;51.438;5.470;2023-03-14T00:34:47;6.87;;;1.40;;
13720;SDS011;6932;51.438;5.470;2023-03-14T00:37:13;3.40;;;1.00;;
13720;SDS011;6932;51.438;5.470;2023-03-14T00:39:39;3.50;;;1.33;;
13720;SDS011;6932;51.438;5.470;2023-03-14T00:42:05;2.97;;;1.10;;
13720;SDS011;6932;51.438;5.470;2023-03-14T00:44:30;2.90;;;1.10;;
13720;SDS011;6932;51.438;5.470;2023-03-14T00:46:57;3.47;;;1.27;;
13720;SDS011;6932;51.438;5.470;2023-03-14T00:49:23;2.50;;;0.93;;
13720;SDS011;6932;51.438;5.470;2023-03-14T00:51:49;4.93;;;1.10;;
13720;SDS011;6932;51.438;5.470;2023-03-14T00:54:16;3.27;;;1.10;;
13720;SDS011;6932;51.438;5.470;2023-03-14T00:56:43;3.47;;;1.20;;
13720;SDS011;6932;51.438;5.470;2023-03-14T00:59:09;4.00;;;1.10;;
13720;SDS011;6932;51.438;5.470;2023-03-14T01:01:35;4.53;;;1.10;;
13720;SDS011;6932;51.438;5.470;2023-03-14T01:04:01;3.63;;;1.07;;
13720;SDS011;6932;51.438;5.470;2023-03-14T01:06:28;4.97;;;1.27;;
13720;SDS011;6932;51.438;5.470;2023-03-14T01:08:55;4.80;;;1.23;;
13720;SDS011;6932;51.438;5.470;2023-03-14T01:11:24;5.50;;;1.20;;
13720;SDS011;6932;51.438;5.470;2023-03-14T01:13:56;3.33;;;1.13;;
13720;SDS011;6932;51.438;5.470;2023-03-14T01:16:24;5.17;;;1.30;;
13720;SDS011;6932;51.438;5.470;2023-03-14T01:18:51;5.17;;;1.10;;
13720;SDS011;6932;51.438;5.470;2023-03-14T01:21:19;4.10;;;1.40;;
13720;SDS011;6932;51.438;5.470;2023-03-14T01:23:48;2.03;;;0.97;;
13720;SDS011;6932;51.438;5.470;2023-03-14T01:26:17;5.97;;;1.27;;
13720;SDS011;6932;51.438;5.470;2023-03-14T01:31:57;4.63;;;1.40;;
13720;SDS011;6932;51.438;5.470;2023-03-14T01:38:04;2.23;;;0.90;;
13720;SDS011;6932;51.438;5.470;2023-03-14T01:40:30;3.00;;;1.00;;
13720;SDS011;6932;51.438;5.470;2023-03-14T01:42:57;3.40;;;1.20;;
13720;SDS011;6932;51.438;5.470;2023-03-14T01:48:39;3.37;;;1.30;;
13720;SDS011;6932;51.438;5.470;2023-03-14T01:57:22;3.57;;;1.17;;
13720;SDS011;6932;51.438;5.470;2023-03-14T02:00:04;5.20;;;1.33;;
13720;SDS011;6932;51.438;5.470;2023-03-14T02:02:46;4.93;;;1.30;;
13720;SDS011;6932;51.438;5.470;2023-03-14T02:05:16;4.23;;;1.43;;
13720;SDS011;6932;51.438;5.470;2023-03-14T02:07:54;3.43;;;1.20;;
13720;SDS011;6932;51.438;5.470;2023-03-14T02:10:24;5.40;;;1.50;;
13720;SDS011;6932;51.438;5.470;2023-03-14T02:12:57;4.30;;;1.47;;
13720;SDS011;6932;51.438;5.470;2023-03-14T02:15:28;4.40;;;1.40;;
13720;SDS011;6932;51.438;5.470;2023-03-14T02:17:54;4.67;;;1.20;;
13720;SDS011;6932;51.438;5.470;2023-03-14T02:23:16;2.67;;;1.03;;
13720;SDS011;6932;51.438;5.470;2023-03-14T02:26:07;4.13;;;1.33;;
13720;SDS011;6932;51.438;5.470;2023-03-14T02:28:44;4.10;;;1.10;;
13720;SDS011;6932;51.438;5.470;2023-03-14T02:31:10;4.00;;;1.43;;
13720;SDS011;6932;51.438;5.470;2023-03-14T02:33:37;4.07;;;1.37;;
13720;SDS011;6932;51.438;5.470;2023-03-14T02:36:09;4.90;;;1.43;;
13720;SDS011;6932;51.438;5.470;2023-03-14T02:41:12;6.07;;;1.30;;
13720;SDS011;6932;51.438;5.470;2023-03-14T02:43:38;3.47;;;1.30;;
13720;SDS011;6932;51.438;5.470;2023-03-14T02:46:04;5.90;;;1.80;;
13720;SDS011;6932;51.438;5.470;2023-03-14T02:48:50;5.73;;;1.50;;
13720;SDS011;6932;51.438;5.470;2023-03-14T02:51:20;4.50;;;1.30;;
13720;SDS011;6932;51.438;5.470;2023-03-14T02:53:48;11.07;;;1.63;;
13720;SDS011;6932;51.438;5.470;2023-03-14T02:56:14;6.13;;;1.43;;
13720;SDS011;6932;51.438;5.470;2023-03-14T02:58:40;4.63;;;1.53;;
13720;SDS011;6932;51.438;5.470;2023-03-14T03:01:06;6.50;;;1.77;;
13720;SDS011;6932;51.438;5.470;2023-03-14T03:03:31;3.67;;;1.37;;
13720;SDS011;6932;51.438;5.470;2023-03-14T03:05:57;4.97;;;1.40;;
13720;SDS011;6932;51.438;5.470;2023-03-14T03:08:24;6.03;;;1.53;;
13720;SDS011;6932;51.438;5.470;2023-03-14T03:10:52;6.10;;;1.60;;
13720;SDS011;6932;51.438;5.470;2023-03-14T03:13:18;5.07;;;1.60;;
13720;SDS011;6932;51.438;5.470;2023-03-14T03:15:44;6.37;;;1.90;;
13720;SDS011;6932;51.438;5.470;2023-03-14T03:18:11;5.27;;;1.70;;
13720;SDS011;6932;51.438;5.470;2023-03-14T03:20:37;5.43;;;1.73;;
13720;SDS011;6932;51.438;5.470;2023-03-14T03:23:03;6.63;;;1.60;;
13720;SDS011;6932;51.438;5.470;2023-03-14T03:25:29;4.07;;;1.27;;
13720;SDS011;6932;51.438;5.470;2023-03-14T03:27:55;7.77;;;1.70;;
13720;SDS011;6932;51.438;5.470;2023-03-14T03:30:22;4.47;;;1.40;;
13720;SDS011;6932;51.438;5.470;2023-03-14T03:32:48;5.07;;;1.30;;
13720;SDS011;6932;51.438;5.470;2023-03-14T03:35:14;7.17;;;1.47;;
13720;SDS011;6932;51.438;5.470;2023-03-14T03:37:40;6.87;;;1.73;;
13720;SDS011;6932;51.438;5.470;2023-03-14T03:40:06;5.53;;;1.50;;
13720;SDS011;6932;51.438;5.470;2023-03-14T03:42:34;4.60;;;1.50;;
13720;SDS011;6932;51.438;5.470;2023-03-14T03:45:02;5.37;;;1.50;;
13720;SDS011;6932;51.438;5.470;2023-03-14T03:47:30;4.70;;;1.40;;
13720;SDS011;6932;51.438;5.470;2023-03-14T03:49:56;6.37;;;1.60;;
13720;SDS011;6932;51.438;5.470;2023-03-14T03:52:22;3.67;;;1.40;;
13720;SDS011;6932;51.438;5.470;2023-03-14T03:54:48;4.53;;;1.93;;
13720;SDS011;6932;51.438;5.470;2023-03-14T03:57:13;3.77;;;1.30;;
13720;SDS011;6932;51.438;5.470;2023-03-14T03:59:39;4.47;;;1.40;;
13720;SDS011;6932;51.438;5.470;2023-03-14T04:02:06;4.30;;;1.17;;
13720;SDS011;6932;51.438;5.470;2023-03-14T04:04:32;5.40;;;1.50;;
13720;SDS011;6932;51.438;5.470;2023-03-14T04:06:58;3.30;;;1.40;;
13720;SDS011;6932;51.438;5.470;2023-03-14T04:09:24;4.73;;;1.50;;
13720;SDS011;6932;51.438;5.470;2023-03-14T04:11:50;3.40;;;1.23;;
13720;SDS011;6932;51.438;5.470;2023-03-14T04:14:15;2.87;;;0.90;;
13720;SDS011;6932;51.438;5.470;2023-03-14T04:16:41;3.43;;;1.13;;
13720;SDS011;6932;51.438;5.470;2023-03-14T04:19:07;1.80;;;0.90;;
13720;SDS011;6932;51.438;5.470;2023-03-14T04:21:33;2.37;;;1.10;;
13720;SDS011;6932;51.438;5.470;2023-03-14T04:23:59;3.67;;;1.03;;
13720;SDS011;6932;51.438;5.470;2023-03-14T04:26:24;1.47;;;0.57;;
13720;SDS011;6932;51.438;5.470;2023-03-14T04:28:50;1.30;;;0.63;;
13720;SDS011;6932;51.438;5.470;2023-03-14T04:31:20;2.53;;;0.80;;
13720;SDS011;6932;51.438;5.470;2023-03-14T04:33:46;2.60;;;1.00;;
13720;SDS011;6932;51.438;5.470;2023-03-14T04:36:12;1.57;;;0.80;;
13720;SDS011;6932;51.438;5.470;2023-03-14T04:38:39;2.40;;;0.90;;
13720;SDS011;6932;51.438;5.470;2023-03-14T04:41:06;3.27;;;0.90;;
13720;SDS011;6932;51.438;5.470;2023-03-14T04:43:32;3.00;;;1.10;;
13720;SDS011;6932;51.438;5.470;2023-03-14T04:45:58;1.77;;;1.00;;
13720;SDS011;6932;51.438;5.470;2023-03-14T04:48:24;1.67;;;0.97;;
13720;SDS011;6932;51.438;5.470;2023-03-14T04:50:52;3.70;;;1.30;;
13720;SDS011;6932;51.438;5.470;2023-03-14T04:53:18;3.50;;;1.23;;
13720;SDS011;6932;51.438;5.470;2023-03-14T04:55:51;3.07;;;1.47;;
13720;SDS011;6932;51.438;5.470;2023-03-14T04:58:19;2.47;;;1.30;;
13720;SDS011;6932;51.438;5.470;2023-03-14T05:00:46;2.93;;;1.50;;
13720;SDS011;6932;51.438;5.470;2023-03-14T05:03:14;2.80;;;1.57;;
13720;SDS011;6932;51.438;5.470;2023-03-14T05:05:41;2.23;;;1.57;;
13720;SDS011;6932;51.438;5.470;2023-03-14T05:08:07;1.93;;;1.60;;
13720;SDS011;6932;51.438;5.470;2023-03-14T05:10:33;2.83;;;1.70;;
13720;SDS011;6932;51.438;5.470;2023-03-14T05:12:59;2.97;;;1.50;;
13720;SDS011;6932;51.438;5.470;2023-03-14T05:15:25;1.70;;;1.50;;
13720;SDS011;6932;51.438;5.470;2023-03-14T05:17:51;2.00;;;1.70;;
13720;SDS011;6932;51.438;5.470;2023-03-14T05:20:17;4.10;;;1.70;;
13720;SDS011;6932;51.438;5.470;2023-03-14T05:22:43;3.40;;;1.77;;
13720;SDS011;6932;51.438;5.470;2023-03-14T05:25:09;3.07;;;1.80;;
13720;SDS011;6932;51.438;5.470;2023-03-14T05:27:35;3.40;;;1.60;;
13720;SDS011;6932;51.438;5.470;2023-03-14T05:30:02;2.80;;;1.60;;
13720;SDS011;6932;51.438;5.470;2023-03-14T05:32:30;2.90;;;1.53;;
13720;SDS011;6932;51.438;5.470;2023-03-14T05:34:56;2.30;;;1.57;;
13720;SDS011;6932;51.438;5.470;2023-03-14T05:37:24;3.13;;;1.73;;
13720;SDS011;6932;51.438;5.470;2023-03-14T05:39:51;2.97;;;1.60;;
13720;SDS011;6932;51.438;5.470;2023-03-14T05:42:17;2.40;;;1.40;;
13720;SDS011;6932;51.438;5.470;2023-03-14T05:52:05;2.63;;;1.40;;
13720;SDS011;6932;51.438;5.470;2023-03-14T05:54:31;4.53;;;1.67;;
13720;SDS011;6932;51.438;5.470;2023-03-14T05:56:57;4.87;;;1.70;;
13720;SDS011;6932;51.438;5.470;2023-03-14T05:59:22;2.60;;;1.33;;
13720;SDS011;6932;51.438;5.470;2023-03-14T06:01:48;3.00;;;1.57;;
13720;SDS011;6932;51.438;5.470;2023-03-14T06:04:14;3.03;;;1.33;;
13720;SDS011;6932;51.438;5.470;2023-03-14T06:06:40;3.37;;;1.50;;
13720;SDS011;6932;51.438;5.470;2023-03-14T06:09:05;2.63;;;1.33;;
13720;SDS011;6932;51.438;5.470;2023-03-14T06:11:31;3.40;;;1.50;;
13720;SDS011;6932;51.438;5.470;2023-03-14T06:13:57;3.33;;;1.50;;
13720;SDS011;6932;51.438;5.470;2023-03-14T06:16:23;2.10;;;1.57;;
13720;SDS011;6932;51.438;5.470;2023-03-14T06:18:48;2.80;;;1.50;;
13720;SDS011;6932;51.438;5.470;2023-03-14T06:21:14;2.03;;;1.33;;
13720;SDS011;6932;51.438;5.470;2023-03-14T06:23:40;2.23;;;1.50;;
13720;SDS011;6932;51.438;5.470;2023-03-14T06:26:06;2.33;;;1.50;;
13720;SDS011;6932;51.438;5.470;2023-03-14T06:28:32;3.87;;;1.60;;
13720;SDS011;6932;51.438;5.470;2023-03-14T06:30:58;3.23;;;1.50;;
13720;SDS011;6932;51.438;5.470;2023-03-14T06:33:25;2.83;;;1.70;;
13720;SDS011;6932;51.438;5.470;2023-03-14T06:35:51;4.90;;;1.57;;
13720;SDS011;6932;51.438;5.470;2023-03-14T06:38:16;3.30;;;1.43;;
13720;SDS011;6932;51.438;5.470;2023-03-14T06:40:42;3.17;;;1.50;;
13720;SDS011;6932;51.438;5.470;2023-03-14T06:43:08;2.37;;;1.50;;
13720;SDS011;6932;51.438;5.470;2023-03-14T06:45:34;2.60;;;1.37;;
13720;SDS011;6932;51.438;5.470;2023-03-14T06:47:59;2.50;;;1.47;;
13720;SDS011;6932;51.438;5.470;2023-03-14T06:50:25;3.73;;;1.30;;
13720;SDS011;6932;51.438;5.470;2023-03-14T06:52:51;1.80;;;1.30;;
13720;SDS011;6932;51.438;5.470;2023-03-14T06:55:17;3.03;;;1.40;;
13720;SDS011;6932;51.438;5.470;2023-03-14T06:57:43;2.07;;;1.40;;
13720;SDS011;6932;51.438;5.470;2023-03-14T07:00:09;2.97;;;1.70;;
13720;SDS011;6932;51.438;5.470;2023-03-14T07:02:37;3.40;;;1.50;;
13720;SDS011;6932;51.438;5.470;2023-03-14T07:05:03;3.07;;;1.60;;
13720;SDS011;6932;51.438;5.470;2023-03-14T07:07:30;1.87;;;1.47;;
13720;SDS011;6932;51.438;5.470;2023-03-14T07:09:56;3.17;;;1.67;;
13720;SDS011;6932;51.438;5.470;2023-03-14T07:12:21;2.87;;;1.50;;
13720;SDS011;6932;51.438;5.470;2023-03-14T07:14:47;2.47;;;1.47;;
13720;SDS011;6932;51.438;5.470;2023-03-14T07:17:13;3.27;;;1.60;;
13720;SDS011;6932;51.438;5.470;2023-03-14T07:19:38;1.83;;;1.47;;
13720;SDS011;6932;51.438;5.470;2023-03-14T07:22:04;2.83;;;1.70;;
13720;SDS011;6932;51.438;5.470;2023-03-14T07:24:30;2.10;;;1.40;;
13720;SDS011;6932;51.438;5.470;2023-03-14T07:26:56;2.37;;;1.60;;
13720;SDS011;6932;51.438;5.470;2023-03-14T07:29:22;2.10;;;1.50;;
13720;SDS011;6932;51.438;5.470;2023-03-14T07:31:48;2.43;;;1.40;;
13720;SDS011;6932;51.438;5.470;2023-03-14T07:37:17;3.03;;;1.53;;
13720;SDS011;6932;51.438;5.470;2023-03-14T07:39:42;3.20;;;1.50;;
13720;SDS011;6932;51.438;5.470;2023-03-14T07:42:08;2.90;;;1.53;;
13720;SDS011;6932;51.438;5.470;2023-03-14T07:44:34;1.17;;;0.70;;
13720;SDS011;6932;51.438;5.470;2023-03-14T07:47:00;1.80;;;1.00;;
13720;SDS011;6932;51.438;5.470;2023-03-14T07:49:25;0.53;;;0.53;;
13720;SDS011;6932;51.438;5.470;2023-03-14T07:51:57;1.90;;;0.80;;
13720;SDS011;6932;51.438;5.470;2023-03-14T07:54:24;0.60;;;0.50;;
13720;SDS011;6932;51.438;5.470;2023-03-14T07:56:50;1.27;;;0.60;;
13720;SDS011;6932;51.438;5.470;2023-03-14T07:59:19;2.60;;;0.80;;
13720;SDS011;6932;51.438;5.470;2023-03-14T08:01:45;1.07;;;0.63;;
13720;SDS011;6932;51.438;5.470;2023-03-14T08:04:11;0.80;;;0.80;;
13720;SDS011;6932;51.438;5.470;2023-03-14T08:06:37;1.77;;;1.00;;
13720;SDS011;6932;51.438;5.470;2023-03-14T08:09:04;0.97;;;0.90;;
13720;SDS011;6932;51.438;5.470;2023-03-14T08:11:29;2.23;;;0.90;;
13720;SDS011;6932;51.438;5.470;2023-03-14T08:13:55;1.60;;;1.00;;
13720;SDS011;6932;51.438;5.470;2023-03-14T08:16:21;1.00;;;0.90;;
13720;SDS011;6932;51.438;5.470;2023-03-14T08:18:47;1.73;;;1.00;;
13720;SDS011;6932;51.438;5.470;2023-03-14T08:21:13;1.23;;;1.10;;
13720;SDS011;6932;51.438;5.470;2023-03-14T08:23:39;2.10;;;1.40;;
13720;SDS011;6932;51.438;5.470;2023-03-14T08:26:05;2.03;;;1.17;;
13720;SDS011;6932;51.438;5.470;2023-03-14T08:28:32;1.40;;;1.30;;
13720;SDS011;6932;51.438;5.470;2023-03-14T08:30:58;1.67;;;1.30;;
13720;SDS011;6932;51.438;5.470;2023-03-14T08:33:26;1.40;;;1.30;;
13720;SDS011;6932;51.438;5.470;2023-03-14T08:35:54;1.50;;;1.20;;
13720;SDS011;6932;51.438;5.470;2023-03-14T08:38:22;1.30;;;1.10;;
13720;SDS011;6932;51.438;5.470;2023-03-14T08:40:48;1.50;;;1.10;;
13720;SDS011;6932;51.438;5.470;2023-03-14T08:43:15;1.10;;;1.00;;
13720;SDS011;6932;51.438;5.470;2023-03-14T08:45:40;2.13;;;1.30;;
13720;SDS011;6932;51.438;5.470;2023-03-14T08:48:06;3.27;;;1.20;;
13720;SDS011;6932;51.438;5.470;2023-03-14T08:50:32;1.00;;;0.90;;
13720;SDS011;6932;51.438;5.470;2023-03-14T08:52:58;2.07;;;1.30;;
13720;SDS011;6932;51.438;5.470;2023-03-14T08:55:25;2.03;;;1.07;;
13720;SDS011;6932;51.438;5.470;2023-03-14T08:57:54;1.93;;;1.10;;
13720;SDS011;6932;51.438;5.470;2023-03-14T09:00:20;2.13;;;1.30;;
13720;SDS011;6932;51.438;5.470;2023-03-14T09:02:46;2.00;;;1.40;;
13720;SDS011;6932;51.438;5.470;2023-03-14T09:05:12;3.07;;;1.63;;
13720;SDS011;6932;51.438;5.470;2023-03-14T09:25:34;1.67;;;0.87;;
13720;SDS011;6932;51.438;5.470;2023-03-14T09:27:59;2.80;;;1.13;;
13720;SDS011;6932;51.438;5.470;2023-03-14T09:30:25;2.47;;;1.00;;
13720;SDS011;6932;51.438;5.470;2023-03-14T09:32:51;1.70;;;0.97;;
13720;SDS011;6932;51.438;5.470;2023-03-14T09:35:17;2.60;;;1.20;;
13720;SDS011;6932;51.438;5.470;2023-03-14T09:37:42;1.07;;;0.90;;
13720;SDS011;6932;51.438;5.470;2023-03-14T09:40:12;2.97;;;1.13;;
13720;SDS011;6932;51.438;5.470;2023-03-14T09:42:41;1.63;;;0.97;;
13720;SDS011;6932;51.438;5.470;2023-03-14T09:45:11;2.23;;;1.10;;
13720;SDS011;6932;51.438;5.470;2023-03-14T09:47:46;2.60;;;0.97;;
13720;SDS011;6932;51.438;5.470;2023-03-14T09:50:15;1.03;;;0.90;;
13720;SDS011;6932;51.438;5.470;2023-03-14T09:53:43;2.63;;;0.87;;
13720;SDS011;6932;51.438;5.470;2023-03-14T09:55:42;0.70;;;0.60;;
13720;SDS011;6932;51.438;5.470;2023-03-14T09:58:14;0.93;;;0.40;;
13720;SDS011;6932;51.438;5.470;2023-03-14T10:00:45;1.33;;;0.40;;
13720;SDS011;6932;51.438;5.470;2023-03-14T10:05:37;0.80;;;0.30;;
13720;SDS011;6932;51.438;5.470;2023-03-14T10:08:06;0.27;;;0.27;;
13720;SDS011;6932;51.438;5.470;2023-03-14T10:10:38;2.37;;;0.50;;
13720;SDS011;6932;51.438;5.470;2023-03-14T11:00:25;3.13;;;0.80;;
13720;SDS011;6932;51.438;5.470;2023-03-14T11:08:55;5.00;;;0.97;;
13720;SDS011;6932;51.438;5.470;2023-03-14T11:11:32;2.67;;;0.90;;
13720;SDS011;6932;51.438;5.470;2023-03-14T11:22:28;5.10;;;1.57;;
13720;SDS011;6932;51.438;5.470;2023-03-14T11:25:12;5.80;;;1.43;;
13720;SDS011;6932;51.438;5.470;2023-03-14T11:27:52;4.83;;;1.33;;
13720;SDS011;6932;51.438;5.470;2023-03-14T11:30:39;5.20;;;1.40;;
13720;SDS011;6932;51.438;5.470;2023-03-14T11:33:17;6.27;;;1.50;;
13720;SDS011;6932;51.438;5.470;2023-03-14T11:36:09;5.63;;;1.60;;
13720;SDS011;6932;51.438;5.470;2023-03-14T11:38:48;6.40;;;1.80;;
13720;SDS011;6932;51.438;5.470;2023-03-14T11:41:22;8.70;;;1.87;;
13720;SDS011;6932;51.438;5.470;2023-03-14T11:46:50;5.83;;;1.50;;
13720;SDS011;6932;51.438;5.470;2023-03-14T11:49:31;6.13;;;1.60;;
13720;SDS011;6932;51.438;5.470;2023-03-14T11:55:38;6.00;;;1.80;;
13720;SDS011;6932;51.438;5.470;2023-03-14T11:57:51;7.47;;;1.60;;
13720;SDS011;6932;51.438;5.470;2023-03-14T12:00:21;6.77;;;1.80;;
13720;SDS011;6932;51.438;5.470;2023-03-14T12:11:31;7.13;;;1.73;;
13720;SDS011;6932;51.438;5.470;2023-03-14T12:14:25;8.20;;;1.80;;
13720;SDS011;6932;51.438;5.470;2023-03-14T12:16:55;7.33;;;2.27;;
13720;SDS011;6932;51.438;5.470;2023-03-14T12:19:43;6.80;;;1.90;;
13720;SDS011;6932;51.438;5.470;2023-03-14T12:25:20;9.97;;;2.00;;
13720;SDS011;6932;51.438;5.470;2023-03-14T12:30:38;7.80;;;2.00;;
13720;SDS011;6932;51.438;5.470;2023-03-14T12:35:38;8.23;;;1.97;;
13720;SDS011;6932;51.438;5.470;2023-03-14T12:41:23;8.03;;;1.90;;
13720;SDS011;6932;51.438;5.470;2023-03-14T12:46:54;9.33;;;2.10;;
13720;SDS011;6932;51.438;5.470;2023-03-14T12:49:40;9.20;;;2.40;;
13720;SDS011;6932;51.438;5.470;2023-03-14T12:52:12;9.83;;;2.37;;
13720;SDS011;6932;51.438;5.470;2023-03-14T12:58:13;12.00;;;2.60;;
13720;SDS011;6932;51.438;5.470;2023-03-14T13:00:57;10.27;;;2.20;;
13720;SDS011;6932;51.438;5.470;2023-03-14T13:03:39;7.87;;;2.00;;
13720;SDS011;6932;51.438;5.470;2023-03-14T13:09:51;12.43;;;2.50;;
13720;SDS011;6932;51.438;5.470;2023-03-14T13:12:27;9.93;;;2.33;;
13720;SDS011;6932;51.438;5.470;2023-03-14T13:15:01;10.70;;;2.33;;
13720;SDS011;6932;51.438;5.470;2023-03-14T13:17:48;6.93;;;2.10;;
13720;SDS011;6932;51.438;5.470;2023-03-14T13:22:59;8.93;;;2.13;;
13720;SDS011;6932;51.438;5.470;2023-03-14T13:25:28;9.60;;;1.80;;
13720;SDS011;6932;51.438;5.470;2023-03-14T13:28:00;7.73;;;1.83;;
13720;SDS011;6932;51.438;5.470;2023-03-14T13:30:28;7.00;;;1.60;;
13720;SDS011;6932;51.438;5.470;2023-03-14T13:33:05;4.53;;;1.50;;
13720;SDS011;6932;51.438;5.470;2023-03-14T13:35:38;5.83;;;1.70;;
13720;SDS011;6932;51.438;5.470;2023-03-14T13:38:41;5.67;;;1.50;;
13720;SDS011;6932;51.438;5.470;2023-03-14T13:41:03;6.43;;;1.50;;
13720;SDS011;6932;51.438;5.470;2023-03-14T13:43:41;5.93;;;1.60;;
13720;SDS011;6932;51.438;5.470;2023-03-14T13:46:12;4.33;;;1.50;;
13720;SDS011;6932;51.438;5.470;2023-03-14T13:48:50;4.77;;;1.30;;
13720;SDS011;6932;51.438;5.470;2023-03-14T13:51:28;7.60;;;1.50;;
13720;SDS011;6932;51.438;5.470;2023-03-14T13:54:00;6.60;;;1.70;;
13720;SDS011;6932;51.438;5.470;2023-03-14T13:56:29;8.07;;;1.77;;
13720;SDS011;6932;51.438;5.470;2023-03-14T13:58:57;6.80;;;1.53;;
13720;SDS011;6932;51.438;5.470;2023-03-14T14:18:54;5.47;;;1.70;;
13720;SDS011;6932;51.438;5.470;2023-03-14T14:21:23;5.00;;;1.47;;
13720;SDS011;6932;51.438;5.470;2023-03-14T14:23:50;5.40;;;1.50;;
13720;SDS011;6932;51.438;5.470;2023-03-14T14:26:16;5.47;;;1.80;;
13720;SDS011;6932;51.438;5.470;2023-03-14T14:28:44;5.10;;;1.63;;
13720;SDS011;6932;51.438;5.470;2023-03-14T14:33:56;6.13;;;1.63;;
13720;SDS011;6932;51.438;5.470;2023-03-14T14:36:29;3.07;;;1.27;;
13720;SDS011;6932;51.438;5.470;2023-03-14T14:39:17;3.67;;;1.50;;
13720;SDS011;6932;51.438;5.470;2023-03-14T14:41:47;5.37;;;1.40;;
13720;SDS011;6932;51.438;5.470;2023-03-14T14:44:28;4.37;;;1.50;;
13720;SDS011;6932;51.438;5.470;2023-03-14T14:46:59;4.80;;;1.40;;
13720;SDS011;6932;51.438;5.470;2023-03-14T14:49:29;6.40;;;1.50;;
13720;SDS011;6932;51.438;5.470;2023-03-14T14:52:00;4.67;;;1.30;;
13720;SDS011;6932;51.438;5.470;2023-03-14T14:54:52;4.47;;;1.40;;
13720;SDS011;6932;51.438;5.470;2023-03-14T14:57:24;3.07;;;1.23;;
13720;SDS011;6932;51.438;5.470;2023-03-14T15:00:03;6.07;;;1.27;;
13720;SDS011;6932;51.438;5.470;2023-03-14T15:02:40;5.83;;;1.50;;
13720;SDS011;6932;51.438;5.470;2023-03-14T15:05:14;3.00;;;1.10;;
13720;SDS011;6932;51.438;5.470;2023-03-14T15:07:49;6.10;;;1.30;;
13720;SDS011;6932;51.438;5.470;2023-03-14T15:10:16;3.97;;;1.23;;
13720;SDS011;6932;51.438;5.470;2023-03-14T15:12:45;4.97;;;1.27;;
13720;SDS011;6932;51.438;5.470;2023-03-14T15:15:12;6.13;;;1.50;;
13720;SDS011;6932;51.438;5.470;2023-03-14T15:17:39;4.53;;;1.40;;
13720;SDS011;6932;51.438;5.470;2023-03-14T15:20:06;5.60;;;1.37;;
13720;SDS011;6932;51.438;5.470;2023-03-14T15:22:38;4.63;;;1.03;;
13720;SDS011;6932;51.438;5.470;2023-03-14T15:25:07;3.20;;;1.30;;
13720;SDS011;6932;51.438;5.470;2023-03-14T15:27:34;4.13;;;1.50;;
13720;SDS011;6932;51.438;5.470;2023-03-14T15:30:04;6.73;;;1.57;;
13720;SDS011;6932;51.438;5.470;2023-03-14T15:32:31;4.63;;;1.20;;
13720;SDS011;6932;51.438;5.470;2023-03-14T15:34:56;3.60;;;1.40;;
13720;SDS011;6932;51.438;5.470;2023-03-14T15:37:22;3.70;;;1.30;;
13720;SDS011;6932;51.438;5.470;2023-03-14T15:39:50;4.77;;;1.40;;
13720;SDS011;6932;51.438;5.470;2023-03-14T15:42:16;6.57;;;1.60;;
13720;SDS011;6932;51.438;5.470;2023-03-14T15:44:41;4.37;;;1.57;;
13720;SDS011;6932;51.438;5.470;2023-03-14T15:47:08;4.80;;;1.50;;
13720;SDS011;6932;51.438;5.470;2023-03-14T15:49:35;6.77;;;1.27;;
13720;SDS011;6932;51.438;5.470;2023-03-14T15:52:01;6.50;;;1.70;;
13720;SDS011;6932;51.438;5.470;2023-03-14T15:54:27;5.93;;;1.50;;
13720;SDS011;6932;51.438;5.470;2023-03-14T15:56:53;7.10;;;1.53;;
13720;SDS011;6932;51.438;5.470;2023-03-14T15:59:23;6.90;;;1.47;;
13720;SDS011;6932;51.438;5.470;2023-03-14T16:16:42;9.93;;;1.67;;
13720;SDS011;6932;51.438;5.470;2023-03-14T16:19:08;8.00;;;1.67;;
13720;SDS011;6932;51.438;5.470;2023-03-14T16:21:34;6.97;;;1.60;;
13720;SDS011;6932;51.438;5.470;2023-03-14T16:24:01;6.73;;;1.37;;
13720;SDS011;6932;51.438;5.470;2023-03-14T16:26:30;4.27;;;1.30;;
13720;SDS011;6932;51.438;5.470;2023-03-14T16:29:00;5.33;;;1.40;;
13720;SDS011;6932;51.438;5.470;2023-03-14T16:31:26;7.00;;;1.50;;
13720;SDS011;6932;51.438;5.470;2023-03-14T16:33:52;6.97;;;1.67;;
13720;SDS011;6932;51.438;5.470;2023-03-14T16:36:18;5.63;;;1.50;;
13720;SDS011;6932;51.438;5.470;2023-03-14T16:38:44;5.67;;;1.47;;
13720;SDS011;6932;51.438;5.470;2023-03-14T16:41:19;5.60;;;1.50;;
13720;SDS011;6932;51.438;5.470;2023-03-14T16:43:47;6.03;;;1.57;;
13720;SDS011;6932;51.438;5.470;2023-03-14T16:46:17;4.20;;;1.03;;
13720;SDS011;6932;51.438;5.470;2023-03-14T16:48:43;7.43;;;1.70;;
13720;SDS011;6932;51.438;5.470;2023-03-14T16:51:10;3.63;;;1.00;;
13720;SDS011;6932;51.438;5.470;2023-03-14T16:53:36;6.90;;;1.67;;
13720;SDS011;6932;51.438;5.470;2023-03-14T16:56:01;6.17;;;1.90;;
13720;SDS011;6932;51.438;5.470;2023-03-14T16:58:27;7.63;;;2.57;;
13720;SDS011;6932;51.438;5.470;2023-03-14T17:00:56;6.00;;;1.40;;
13720;SDS011;6932;51.438;5.470;2023-03-14T17:03:23;4.63;;;1.47;;
13720;SDS011;6932;51.438;5.470;2023-03-14T17:05:51;6.60;;;1.63;;
13720;SDS011;6932;51.438;5.470;2023-03-14T17:08:18;5.27;;;1.67;;
13720;SDS011;6932;51.438;5.470;2023-03-14T17:10:45;6.43;;;1.53;;
13720;SDS011;6932;51.438;5.470;2023-03-14T17:13:11;3.40;;;1.30;;
13720;SDS011;6932;51.438;5.470;2023-03-14T17:15:37;4.30;;;1.30;;
13720;SDS011;6932;51.438;5.470;2023-03-14T17:18:09;5.70;;;1.70;;
13720;SDS011;6932;51.438;5.470;2023-03-14T17:20:34;5.30;;;1.80;;
13720;SDS011;6932;51.438;5.470;2023-03-14T17:23:00;3.63;;;1.77;;
13720;SDS011;6932;51.438;5.470;2023-03-14T17:25:26;5.40;;;1.80;;
13720;SDS011;6932;51.438;5.470;2023-03-14T17:27:52;6.73;;;1.80;;
13720;SDS011;6932;51.438;5.470;2023-03-14T17:30:17;6.63;;;2.00;;
13720;SDS011;6932;51.438;5.470;2023-03-14T17:32:43;5.17;;;1.63;;
13720;SDS011;6932;51.438;5.470;2023-03-14T17:35:09;3.80;;;1.67;;
13720;SDS011;6932;51.438;5.470;2023-03-14T17:37:35;4.50;;;1.60;;
13720;SDS011;6932;51.438;5.470;2023-03-14T17:40:01;5.37;;;1.57;;
13720;SDS011;6932;51.438;5.470;2023-03-14T17:42:28;4.63;;;1.60;;
13720;SDS011;6932;51.438;5.470;2023-03-14T17:44:55;6.40;;;1.57;;
13720;SDS011;6932;51.438;5.470;2023-03-14T17:47:21;6.03;;;1.60;;
13720;SDS011;6932;51.438;5.470;2023-03-14T17:49:46;6.70;;;1.60;;
13720;SDS011;6932;51.438;5.470;2023-03-14T17:52:12;4.87;;;1.60;;
13720;SDS011;6932;51.438;5.470;2023-03-14T17:54:38;6.97;;;1.77;;
13720;SDS011;6932;51.438;5.470;2023-03-14T17:57:04;5.20;;;1.47;;
13720;SDS011;6932;51.438;5.470;2023-03-14T17:59:30;5.90;;;2.10;;
13720;SDS011;6932;51.438;5.470;2023-03-14T18:01:56;8.17;;;1.80;;
13720;SDS011;6932;51.438;5.470;2023-03-14T18:04:22;6.10;;;1.90;;
13720;SDS011;6932;51.438;5.470;2023-03-14T18:06:47;5.70;;;2.03;;
13720;SDS011;6932;51.438;5.470;2023-03-14T18:09:13;6.63;;;1.80;;
13720;SDS011;6932;51.438;5.470;2023-03-14T18:11:39;6.33;;;2.10;;
13720;SDS011;6932;51.438;5.470;2023-03-14T18:14:05;5.60;;;1.80;;
13720;SDS011;6932;51.438;5.470;2023-03-14T18:16:35;7.47;;;1.80;;